Terminal Aerodrome Forecast
Issued by NWS

Home | Current Version | Previous Version | Text Only | Print | Product List | Glossary On
Versions: 1 2 3 4 5 6 7 8 9 10 11 12 13
498
FTUS41 KPHI 102336
TAFPNE
TAF
KPNE 102336Z 1100/1124 29006KT P6SM FEW050
     FM110800 VRB03KT P6SM BKN100
     FM111400 21006KT P6SM OVC050 PROB30 1119/1122 6SM -SN OVC050
     FM112200 19005KT 5SM -SN OVC040=

USA.gov is the U.S. government's official web portal to all federal, state and local government web resources and services.